createdAt,value
2018-03-27T00:01:11.532Z,36.57
2018-03-27T00:03:39.879Z,50.63
2018-03-27T00:06:08.161Z,47.53
2018-03-27T00:08:36.457Z,53.63
2018-03-27T00:11:05.454Z,56.40
2018-03-27T00:13:33.736Z,58.47
2018-03-27T00:16:02.267Z,52.13
2018-03-27T00:18:30.810Z,50.30
2018-03-27T00:20:59.836Z,63.07
2018-03-27T00:23:28.110Z,47.43
2018-03-27T00:25:57.425Z,55.73
2018-03-27T00:28:43.322Z,47.33
2018-03-27T00:31:29.392Z,47.87
2018-03-27T00:34:16.255Z,47.37
2018-03-27T00:37:02.232Z,53.27
2018-03-27T00:39:48.184Z,54.20
2018-03-27T00:45:26.050Z,55.53
2018-03-27T00:47:55.784Z,51.00
2018-03-27T00:50:24.886Z,47.40
2018-03-27T00:52:53.994Z,52.70
2018-03-27T00:55:22.284Z,47.83
2018-03-27T00:57:52.351Z,47.63
2018-03-27T01:00:20.621Z,45.27
2018-03-27T01:02:48.900Z,55.27
2018-03-27T01:05:17.191Z,50.17
2018-03-27T01:07:45.465Z,65.67
2018-03-27T01:10:13.730Z,67.13
2018-03-27T01:12:42.054Z,63.23
2018-03-27T01:15:12.330Z,57.40
2018-03-27T01:17:40.841Z,59.63
2018-03-27T01:20:09.219Z,52.77
2018-03-27T01:22:37.495Z,61.40
2018-03-27T01:25:05.764Z,57.87
2018-03-27T01:27:34.989Z,73.50
2018-03-27T01:30:03.348Z,65.50
2018-03-27T01:32:31.628Z,57.73
2018-03-27T01:34:59.939Z,63.13
2018-03-27T01:37:28.950Z,63.60
2018-03-27T01:39:57.984Z,75.13
2018-03-27T01:42:26.279Z,71.67
2018-03-27T01:44:54.557Z,69.77
2018-03-27T01:47:23.613Z,82.83
2018-03-27T01:49:52.524Z,82.47
2018-03-27T01:52:21.160Z,72.73
2018-03-27T01:54:49.964Z,84.63
2018-03-27T01:57:19.028Z,65.00
2018-03-27T01:59:48.210Z,68.67
2018-03-27T02:02:16.492Z,92.23
2018-03-27T02:04:45.084Z,69.47
2018-03-27T02:07:14.019Z,79.03
2018-03-27T02:09:43.979Z,80.50
2018-03-27T02:12:17.704Z,68.40
2018-03-27T02:14:51.604Z,68.27
2018-03-27T02:17:25.392Z,60.97
2018-03-27T02:19:59.205Z,73.97
2018-03-27T02:22:28.199Z,90.27
2018-03-27T02:24:56.494Z,63.83
2018-03-27T02:27:25.601Z,69.83
2018-03-27T02:29:53.967Z,66.97
2018-03-27T02:32:22.240Z,78.67
2018-03-27T02:34:50.576Z,85.67
2018-03-27T02:37:18.892Z,70.27
2018-03-27T02:39:47.164Z,79.03
2018-03-27T02:42:16.270Z,75.63
2018-03-27T02:44:44.651Z,59.33
2018-03-27T02:47:13.621Z,68.63
2018-03-27T02:49:41.908Z,69.80
2018-03-27T02:52:11.242Z,69.53
2018-03-27T02:54:41.140Z,64.30
2018-03-27T02:57:10.200Z,62.33
2018-03-27T02:59:38.504Z,73.13
2018-03-27T03:02:06.811Z,70.27
2018-03-27T03:04:35.098Z,67.70
2018-03-27T03:07:04.144Z,59.50
2018-03-27T03:09:32.569Z,55.20
2018-03-27T03:12:01.580Z,64.43
2018-03-27T03:14:31.454Z,60.40
2018-03-27T03:16:59.737Z,57.87
2018-03-27T03:19:28.036Z,50.47
2018-03-27T03:21:56.304Z,48.67
2018-03-27T03:24:24.601Z,50.90
2018-03-27T03:26:52.879Z,48.67
2018-03-27T03:29:21.188Z,64.47
2018-03-27T03:31:49.940Z,51.37
2018-03-27T03:34:18.630Z,66.80
2018-03-27T03:36:46.965Z,48.60
2018-03-27T03:39:15.214Z,50.13
2018-03-27T03:41:44.344Z,52.10
2018-03-27T03:44:12.636Z,53.90
2018-03-27T03:46:40.997Z,68.90
2018-03-27T03:49:11.048Z,67.27
2018-03-27T03:51:39.327Z,60.30
2018-03-27T03:54:08.500Z,70.40
2018-03-27T03:56:37.550Z,64.33
2018-03-27T03:59:07.012Z,53.23
2018-03-27T04:01:35.309Z,53.83
2018-03-27T04:04:03.646Z,60.67
2018-03-27T04:06:31.913Z,57.83
2018-03-27T04:09:00.203Z,66.53
2018-03-27T04:11:28.484Z,61.03
2018-03-27T04:13:56.768Z,62.10
2018-03-27T04:16:25.053Z,72.33
2018-03-27T04:18:53.320Z,67.30
2018-03-27T04:21:23.080Z,71.50
2018-03-27T04:23:51.389Z,56.60
2018-03-27T04:26:19.681Z,77.97
2018-03-27T04:28:47.972Z,77.53
2018-03-27T04:31:16.440Z,73.80
2018-03-27T04:33:44.749Z,68.27
2018-03-27T04:36:13.956Z,80.27
2018-03-27T04:38:42.792Z,71.63
2018-03-27T04:41:11.700Z,69.27
2018-03-27T04:43:39.974Z,87.10
2018-03-27T04:46:08.287Z,88.87
2018-03-27T04:48:36.555Z,89.33
2018-03-27T04:51:04.840Z,74.43
2018-03-27T04:53:33.295Z,68.97
2018-03-27T04:56:01.568Z,63.90
2018-03-27T04:58:30.489Z,70.00
2018-03-27T05:00:58.801Z,78.67
2018-03-27T05:03:28.801Z,83.93
2018-03-27T05:05:57.076Z,75.00
2018-03-27T05:08:25.344Z,82.80
2018-03-27T05:10:53.699Z,78.67
2018-03-27T05:13:22.912Z,79.27
2018-03-27T05:15:51.614Z,75.97
2018-03-27T05:18:20.073Z,80.73
2018-03-27T05:20:48.447Z,85.00
2018-03-27T05:23:17.070Z,90.53
2018-03-27T05:25:45.724Z,82.63
2018-03-27T05:28:14.076Z,94.50
2018-03-27T05:30:42.650Z,82.10
2018-03-27T05:33:11.779Z,73.27
2018-03-27T05:35:41.475Z,72.27
2018-03-27T05:38:09.760Z,80.27
2018-03-27T05:40:38.359Z,76.07
2018-03-27T05:43:06.647Z,71.93
2018-03-27T05:45:34.921Z,93.73
2018-03-27T05:48:03.245Z,70.43
2018-03-27T05:50:32.280Z,62.33
2018-03-27T05:53:00.681Z,111.97
2018-03-27T05:55:28.960Z,74.83
2018-03-27T05:57:57.607Z,77.87
2018-03-27T06:00:26.851Z,82.97
2018-03-27T06:02:55.129Z,80.50
2018-03-27T06:05:23.400Z,78.07
2018-03-27T06:07:51.681Z,68.73
2018-03-27T06:10:20.460Z,71.23
2018-03-27T06:12:48.835Z,81.43
2018-03-27T06:15:17.211Z,68.13
2018-03-27T06:17:45.481Z,79.13
2018-03-27T06:20:14.607Z,82.43
2018-03-27T06:22:43.067Z,79.53
2018-03-27T06:25:11.347Z,76.63
2018-03-27T06:27:40.054Z,75.63
2018-03-27T06:30:08.776Z,64.27
2018-03-27T06:32:38.372Z,73.33
2018-03-27T06:35:06.678Z,79.80
2018-03-27T06:37:35.848Z,82.10
2018-03-27T06:40:04.119Z,70.13
2018-03-27T06:42:32.470Z,60.10
2018-03-27T06:45:00.762Z,67.77
2018-03-27T06:47:29.648Z,82.10
2018-03-27T06:49:59.500Z,71.80
2018-03-27T06:52:33.675Z,65.00
2018-03-27T06:55:04.181Z,75.57
2018-03-27T06:57:35.158Z,74.17
2018-03-27T07:00:05.274Z,66.67
2018-03-27T07:02:34.552Z,61.17
2018-03-27T07:05:04.213Z,73.40
2018-03-27T07:07:34.904Z,71.37
2018-03-27T07:10:03.719Z,78.57
2018-03-27T07:12:33.584Z,75.43
2018-03-27T07:15:02.440Z,76.77
2018-03-27T07:17:33.657Z,73.80
2018-03-27T07:20:04.972Z,75.00
2018-03-27T07:22:35.523Z,66.70
2018-03-27T07:25:05.573Z,90.40
2018-03-27T07:27:35.229Z,74.97
2018-03-27T07:30:05.170Z,63.90
2018-03-27T07:32:36.324Z,93.07
2018-03-27T07:35:04.601Z,81.03
2018-03-27T07:37:33.621Z,86.83
2018-03-27T07:40:05.624Z,77.83
2018-03-27T07:42:34.928Z,70.67
2018-03-27T07:45:04.826Z,91.30
2018-03-27T07:47:35.487Z,96.83
2018-03-27T07:50:04.149Z,73.13
2018-03-27T07:52:33.332Z,78.57
2018-03-27T07:55:02.049Z,74.00
2018-03-27T07:57:30.360Z,70.23
2018-03-27T07:59:58.670Z,82.80
2018-03-27T08:02:28.646Z,80.63
2018-03-27T08:04:57.920Z,72.43
2018-03-27T08:07:26.516Z,64.60
2018-03-27T08:09:55.697Z,82.07
2018-03-27T08:12:25.341Z,79.97
2018-03-27T08:14:54.327Z,75.80
2018-03-27T08:17:23.835Z,70.00
2018-03-27T08:19:52.104Z,74.43
2018-03-27T08:22:20.917Z,63.90
2018-03-27T08:24:50.102Z,73.23
2018-03-27T08:27:18.375Z,57.27
2018-03-27T08:29:46.659Z,63.13
2018-03-27T08:32:16.160Z,60.87
2018-03-27T08:34:46.278Z,57.03
2018-03-27T08:37:15.839Z,66.50
2018-03-27T08:39:44.169Z,56.50
2018-03-27T08:42:12.869Z,54.77
2018-03-27T08:44:41.257Z,65.57
2018-03-27T08:47:09.816Z,55.67
2018-03-27T08:49:39.176Z,59.83
2018-03-27T08:52:07.987Z,52.53
2018-03-27T08:54:37.847Z,59.33
2018-03-27T08:57:07.121Z,59.20
2018-03-27T08:59:35.409Z,47.53
2018-03-27T09:02:04.928Z,57.27
2018-03-27T09:04:33.396Z,50.90
2018-03-27T09:07:03.355Z,44.93
2018-03-27T09:09:32.025Z,38.00
2018-03-27T09:12:00.402Z,38.47
2018-03-27T09:14:29.063Z,34.03
2018-03-27T09:16:57.472Z,27.83
2018-03-27T09:19:25.755Z,36.53
2018-03-27T09:21:54.788Z,32.07
2018-03-27T09:24:23.829Z,30.37
2018-03-27T09:26:52.149Z,28.70
2018-03-27T09:29:21.413Z,33.07
2018-03-27T09:31:49.680Z,39.67
2018-03-27T09:34:18.021Z,30.83
2018-03-27T09:36:47.190Z,28.70
2018-03-27T09:39:15.535Z,30.90
2018-03-27T09:41:44.185Z,34.27
2018-03-27T09:44:13.331Z,32.70
2018-03-27T09:46:41.708Z,26.70
2018-03-27T09:49:10.105Z,29.87
2018-03-27T09:51:38.389Z,28.63
2018-03-27T09:54:06.798Z,28.63
2018-03-27T09:56:37.420Z,29.37
2018-03-27T09:59:06.475Z,32.63
2018-03-27T10:01:39.976Z,28.43
2018-03-27T10:04:08.444Z,34.03
2018-03-27T10:06:36.728Z,29.50
2018-03-27T10:09:06.218Z,27.70
2018-03-27T10:11:34.489Z,32.73
2018-03-27T10:14:02.778Z,30.80
2018-03-27T10:16:31.041Z,26.53
2018-03-27T10:18:59.330Z,33.53
2018-03-27T10:21:27.919Z,28.80
2018-03-27T10:23:56.544Z,26.53
2018-03-27T10:26:25.362Z,27.73
2018-03-27T10:28:53.633Z,24.37
2018-03-27T10:31:23.508Z,23.33
2018-03-27T10:33:51.768Z,17.13
2018-03-27T10:36:20.173Z,23.40
2018-03-27T10:38:48.486Z,20.13
2018-03-27T10:41:18.059Z,28.63
2018-03-27T10:43:46.848Z,23.17
2018-03-27T10:46:17.141Z,21.57
2018-03-27T10:48:46.288Z,21.57
2018-03-27T10:51:15.104Z,24.37
2018-03-27T10:53:44.572Z,24.37
2018-03-27T10:56:12.977Z,20.90
2018-03-27T10:58:41.277Z,16.33
2018-03-27T11:01:10.339Z,16.03
2018-03-27T11:03:39.076Z,19.87
2018-03-27T11:06:07.356Z,14.03
2018-03-27T11:08:35.631Z,13.20
2018-03-27T11:11:04.036Z,15.37
2018-03-27T11:13:32.409Z,13.97
2018-03-27T11:16:00.691Z,16.70
2018-03-27T11:18:28.992Z,14.10
2018-03-27T11:20:57.298Z,11.80
2018-03-27T11:23:26.349Z,11.77
2018-03-27T11:25:54.667Z,7.10
2018-03-27T11:28:23.704Z,10.70
2018-03-27T11:30:52.008Z,9.50
2018-03-27T11:33:20.311Z,11.70
2018-03-27T11:35:48.593Z,10.40
2018-03-27T11:38:17.636Z,12.70
2018-03-27T11:40:45.937Z,15.27
2018-03-27T11:43:14.306Z,7.90
2018-03-27T11:45:43.363Z,12.23
2018-03-27T11:48:11.641Z,11.23
2018-03-27T11:50:39.941Z,16.37
2018-03-27T11:53:08.221Z,9.37
2018-03-27T11:55:38.152Z,10.90
2018-03-27T11:58:06.454Z,9.20
2018-03-27T12:00:34.736Z,10.23
2018-03-27T12:03:03.032Z,8.30
2018-03-27T12:05:32.071Z,9.53
2018-03-27T12:08:00.411Z,5.60
2018-03-27T12:10:29.472Z,8.00
2018-03-27T12:12:57.824Z,8.20
2018-03-27T12:15:26.367Z,6.10
2018-03-27T12:17:55.412Z,4.90
2018-03-27T12:20:23.723Z,12.63
2018-03-27T12:22:51.990Z,9.13
2018-03-27T12:25:20.331Z,7.93
2018-03-27T12:27:48.730Z,7.57
2018-03-27T12:30:17.516Z,6.37
2018-03-27T12:32:46.208Z,6.73
2018-03-27T12:35:14.579Z,6.73
2018-03-27T12:37:42.892Z,4.10
2018-03-27T12:40:11.152Z,5.70
2018-03-27T12:42:40.353Z,6.93
2018-03-27T12:45:08.712Z,7.97
2018-03-27T12:47:37.001Z,17.53
2018-03-27T12:50:05.307Z,8.13
2018-03-27T12:52:33.647Z,4.73
2018-03-27T12:55:01.930Z,5.87
2018-03-27T12:57:30.209Z,7.10
2018-03-27T12:59:58.583Z,4.33
2018-03-27T13:02:26.879Z,6.50
2018-03-27T13:04:55.776Z,4.57
2018-03-27T13:07:24.052Z,7.20
2018-03-27T13:09:55.202Z,5.10
2018-03-27T13:12:24.233Z,4.17
2018-03-27T13:14:54.001Z,2.90
2018-03-27T13:17:22.596Z,3.40
2018-03-27T13:19:51.142Z,4.10
2018-03-27T13:22:19.849Z,5.20
2018-03-27T13:24:48.214Z,6.50
2018-03-27T13:27:16.609Z,3.63
2018-03-27T13:29:44.896Z,2.73
2018-03-27T13:32:13.398Z,3.67
2018-03-27T13:34:41.743Z,3.73
2018-03-27T13:37:10.389Z,6.73
2018-03-27T13:39:39.621Z,4.37
2018-03-27T13:42:08.020Z,3.13
2018-03-27T13:44:36.309Z,3.53
2018-03-27T13:47:05.284Z,3.63
2018-03-27T13:49:33.555Z,3.77
2018-03-27T13:52:01.934Z,2.50
2018-03-27T13:54:31.119Z,4.30
2018-03-27T13:56:59.408Z,4.73
2018-03-27T13:59:27.752Z,3.13
2018-03-27T14:01:57.704Z,3.63
2018-03-27T14:04:26.020Z,3.20
2018-03-27T14:06:54.286Z,7.10
2018-03-27T14:09:22.791Z,5.60
2018-03-27T14:11:51.112Z,9.23
2018-03-27T14:14:20.138Z,4.03
2018-03-27T14:16:49.025Z,5.47
2018-03-27T14:19:17.385Z,4.03
2018-03-27T14:21:45.730Z,10.53
2018-03-27T14:24:14.780Z,5.90
2018-03-27T14:26:44.209Z,6.00
2018-03-27T14:29:13.048Z,5.00
2018-03-27T14:31:43.427Z,5.80
2018-03-27T14:34:11.746Z,8.00
2018-03-27T14:36:40.860Z,11.73
2018-03-27T14:39:09.430Z,6.40
2018-03-27T14:41:38.393Z,6.90
2018-03-27T14:44:06.705Z,6.87
2018-03-27T14:46:35.004Z,5.40
2018-03-27T14:49:03.442Z,5.17
2018-03-27T14:51:32.500Z,5.43
2018-03-27T14:54:00.777Z,8.60
2018-03-27T14:56:29.137Z,7.40
2018-03-27T14:58:57.600Z,6.63
2018-03-27T15:01:25.864Z,10.20
2018-03-27T15:03:54.159Z,6.97
2018-03-27T15:06:22.440Z,5.97
2018-03-27T15:08:50.823Z,10.77
2018-03-27T15:11:19.115Z,5.10
2018-03-27T15:13:47.423Z,4.53
2018-03-27T15:16:16.068Z,6.13
2018-03-27T15:18:45.607Z,4.20
2018-03-27T15:21:14.617Z,6.83
2018-03-27T15:23:43.768Z,3.50
2018-03-27T15:26:12.049Z,3.00
2018-03-27T15:28:41.101Z,5.67
2018-03-27T15:31:10.257Z,9.00
2018-03-27T15:33:38.614Z,9.27
2018-03-27T15:36:07.620Z,7.07
2018-03-27T15:38:35.893Z,5.97
2018-03-27T15:41:05.161Z,7.70
2018-03-27T15:43:34.449Z,7.03
2018-03-27T15:46:04.039Z,7.60
2018-03-27T15:48:32.683Z,6.43
2018-03-27T15:51:00.955Z,6.83
2018-03-27T15:53:29.548Z,6.33
2018-03-27T15:55:58.147Z,4.47
2018-03-27T15:58:26.415Z,5.77
2018-03-27T16:00:55.905Z,4.23
2018-03-27T16:03:24.301Z,4.87
2018-03-27T16:05:52.587Z,4.57
2018-03-27T16:08:20.987Z,4.43
2018-03-27T16:10:49.969Z,3.50
2018-03-27T16:13:18.428Z,4.27
2018-03-27T16:15:46.695Z,4.60
2018-03-27T16:18:14.969Z,3.20
2018-03-27T16:20:43.676Z,10.10
2018-03-27T16:23:11.937Z,3.83
2018-03-27T16:25:40.194Z,5.93
2018-03-27T16:28:09.732Z,2.77
2018-03-27T16:30:38.005Z,7.67
2018-03-27T16:33:07.437Z,2.87
2018-03-27T16:35:35.805Z,4.47
2018-03-27T16:38:04.090Z,5.60
2018-03-27T16:40:32.371Z,3.80
2018-03-27T16:43:00.672Z,4.60
2018-03-27T16:45:29.871Z,7.60
2018-03-27T16:47:58.143Z,6.73
2018-03-27T16:50:26.486Z,2.70
2018-03-27T16:52:55.327Z,2.53
2018-03-27T16:55:25.933Z,4.80
2018-03-27T16:57:54.784Z,4.20
2018-03-27T17:00:23.061Z,4.10
2018-03-27T17:02:51.449Z,7.00
2018-03-27T17:05:20.383Z,4.43
2018-03-27T17:07:48.889Z,3.80
2018-03-27T17:10:18.129Z,4.40
2018-03-27T17:12:46.416Z,7.10
2018-03-27T17:15:14.682Z,3.43
2018-03-27T17:17:43.063Z,4.00
2018-03-27T17:20:11.331Z,5.30
2018-03-27T17:22:40.401Z,4.07
2018-03-27T17:25:09.495Z,9.70
2018-03-27T17:27:39.293Z,4.03
2018-03-27T17:30:07.552Z,4.17
2018-03-27T17:32:35.859Z,3.97
2018-03-27T17:35:04.906Z,5.30
2018-03-27T17:37:33.200Z,4.30
2018-03-27T17:40:01.776Z,5.37
2018-03-27T17:42:30.183Z,6.10
2018-03-27T17:44:58.474Z,6.17
2018-03-27T17:47:27.326Z,4.40
2018-03-27T17:49:55.611Z,6.00
2018-03-27T17:52:24.483Z,7.00
2018-03-27T17:54:53.085Z,5.70
2018-03-27T17:57:21.992Z,3.13
2018-03-27T17:59:50.559Z,6.30
2018-03-27T18:02:18.847Z,4.60
2018-03-27T18:04:47.173Z,8.17
2018-03-27T18:07:16.514Z,7.20
2018-03-27T18:09:45.094Z,5.47
2018-03-27T18:12:13.422Z,6.17
2018-03-27T18:14:42.559Z,8.43
2018-03-27T18:17:11.284Z,6.77
2018-03-27T18:19:39.572Z,7.77
2018-03-27T18:22:07.946Z,5.70
2018-03-27T18:24:36.850Z,5.30
2018-03-27T18:27:05.149Z,5.70
2018-03-27T18:29:34.209Z,9.63
2018-03-27T18:32:02.513Z,6.97
2018-03-27T18:34:31.608Z,4.93
2018-03-27T18:37:00.679Z,6.40
2018-03-27T18:39:28.990Z,10.07
2018-03-27T18:41:58.060Z,6.80
2018-03-27T18:44:26.905Z,10.30
2018-03-27T18:46:55.210Z,10.97
2018-03-27T18:49:24.264Z,11.70
2018-03-27T18:51:52.545Z,8.70
2018-03-27T18:54:21.643Z,9.90
2018-03-27T18:56:49.941Z,6.87
2018-03-27T18:59:18.758Z,9.00
2018-03-27T19:01:47.065Z,9.87
2018-03-27T19:04:16.126Z,8.80
2018-03-27T19:06:44.482Z,8.83
2018-03-27T19:09:12.974Z,11.30
2018-03-27T19:11:41.265Z,11.60
2018-03-27T19:14:09.538Z,9.43
2018-03-27T19:16:38.122Z,12.20
2018-03-27T19:19:06.399Z,8.90
2018-03-27T19:21:34.659Z,6.47
2018-03-27T19:24:03.057Z,8.80
2018-03-27T19:26:31.351Z,8.83
2018-03-27T19:29:00.098Z,15.37
2018-03-27T19:31:28.389Z,7.97
2018-03-27T19:33:56.998Z,8.93
2018-03-27T19:36:25.574Z,8.70
2018-03-27T19:38:54.156Z,10.63
2018-03-27T19:41:22.437Z,9.30
2018-03-27T19:43:50.732Z,11.50
2018-03-27T19:46:19.304Z,9.13
2018-03-27T19:48:48.250Z,9.80
2018-03-27T19:51:16.541Z,9.70
2018-03-27T19:53:44.852Z,11.67
2018-03-27T19:56:13.160Z,10.50
2018-03-27T19:58:42.190Z,8.20
2018-03-27T20:01:10.492Z,18.80
2018-03-27T20:03:38.816Z,10.17
2018-03-27T20:06:07.863Z,11.70
2018-03-27T20:08:36.144Z,13.80
2018-03-27T20:11:04.477Z,8.10
2018-03-27T20:13:33.553Z,11.03
2018-03-27T20:16:01.841Z,11.27
2018-03-27T20:18:30.876Z,11.20
2018-03-27T20:20:59.679Z,12.53
2018-03-27T20:23:27.976Z,15.07
2018-03-27T20:25:56.327Z,11.17
2018-03-27T20:28:24.600Z,11.50
2018-03-27T20:30:52.880Z,9.80
2018-03-27T20:33:21.298Z,10.87
2018-03-27T20:35:49.975Z,14.40
2018-03-27T20:38:18.280Z,9.07
2018-03-27T20:40:48.572Z,13.67
2018-03-27T20:43:17.384Z,10.87
2018-03-27T20:45:45.694Z,11.50
2018-03-27T20:48:13.988Z,12.43
2018-03-27T20:50:42.256Z,13.00
2018-03-27T20:53:10.559Z,10.17
2018-03-27T20:55:39.263Z,11.80
2018-03-27T20:58:08.188Z,10.93
2018-03-27T21:00:38.142Z,8.37
2018-03-27T21:03:07.935Z,12.17
2018-03-27T21:05:37.229Z,12.30
2018-03-27T21:08:07.375Z,12.23
2018-03-27T21:10:35.655Z,15.33
2018-03-27T21:13:03.920Z,14.33
2018-03-27T21:15:32.186Z,12.53
2018-03-27T21:18:01.408Z,13.07
2018-03-27T21:20:29.731Z,16.20
2018-03-27T21:22:58.744Z,9.10
2018-03-27T21:25:27.170Z,8.70
2018-03-27T21:27:55.451Z,14.90
2018-03-27T21:30:23.741Z,10.87
2018-03-27T21:32:52.132Z,13.87
2018-03-27T21:35:21.462Z,10.50
2018-03-27T21:37:49.729Z,13.00
2018-03-27T21:40:18.226Z,15.37
2018-03-27T21:42:47.269Z,16.70
2018-03-27T21:45:15.567Z,10.77
2018-03-27T21:47:45.640Z,13.37
2018-03-27T21:50:13.930Z,13.00
2018-03-27T21:52:42.216Z,11.97
2018-03-27T21:55:10.631Z,13.17
2018-03-27T21:57:38.899Z,15.30
2018-03-27T22:00:09.015Z,14.23
2018-03-27T22:02:37.380Z,16.13
2018-03-27T22:05:05.680Z,20.50
2018-03-27T22:07:33.954Z,15.17
2018-03-27T22:10:02.233Z,14.30
2018-03-27T22:12:30.679Z,15.57
2018-03-27T22:14:58.969Z,12.23
2018-03-27T22:17:27.257Z,11.53
2018-03-27T22:19:55.648Z,18.93
2018-03-27T22:22:24.800Z,17.37
2018-03-27T22:24:53.101Z,16.57
2018-03-27T22:27:21.607Z,20.13
2018-03-27T22:29:50.710Z,15.30
2018-03-27T22:32:19.399Z,14.50
2018-03-27T22:34:47.705Z,13.13
2018-03-27T22:37:16.773Z,15.27
2018-03-27T22:39:46.833Z,21.57
2018-03-27T22:42:15.054Z,12.33
2018-03-27T22:44:43.327Z,18.43
2018-03-27T22:47:12.455Z,12.87
2018-03-27T22:49:40.732Z,13.03
2018-03-27T22:52:09.493Z,17.10
2018-03-27T22:54:37.772Z,15.10
2018-03-27T22:57:06.049Z,21.30
2018-03-27T22:59:34.620Z,18.40
2018-03-27T23:02:02.906Z,13.00
2018-03-27T23:04:31.543Z,17.30
2018-03-27T23:07:00.584Z,18.23
2018-03-27T23:09:28.857Z,13.40
2018-03-27T23:11:57.184Z,21.70
2018-03-27T23:14:25.439Z,14.10
2018-03-27T23:16:53.794Z,17.50
2018-03-27T23:19:22.048Z,13.90
2018-03-27T23:21:50.341Z,14.43
2018-03-27T23:24:18.641Z,18.40
2018-03-27T23:26:46.916Z,16.73
2018-03-27T23:29:15.616Z,23.80
2018-03-27T23:31:43.888Z,16.00
2018-03-27T23:34:12.168Z,17.33
2018-03-27T23:36:40.537Z,12.00
2018-03-27T23:39:08.809Z,13.93
2018-03-27T23:41:37.138Z,15.13
2018-03-27T23:44:05.568Z,13.53
2018-03-27T23:46:33.842Z,20.87
2018-03-27T23:49:02.134Z,14.53
2018-03-27T23:51:30.731Z,16.33
2018-03-27T23:53:58.996Z,18.17
2018-03-27T23:56:27.296Z,13.43
2018-03-27T23:58:55.648Z,14.77
